Time;durP1;ratioP1;P1;durP2;ratioP2;P2;SDS_P1;SDS_P2;PMS_P1;PMS_P2;Temp;Humidity;BMP_temperature;BMP_pressure;BME280_temperature;BME280_humidity;BME280_pressure;Samples;Min_cycle;Max_cycle;Signal;HPM_P1;HPM_P2
2021/12/03 00:00:57;;;;;;;68.67;12.30;;;;;;;;;;5017085;28;20481;-96
2021/12/03 00:03:24;;;;;;;66.47;13.03;;;;;;;;;;5014913;28;21238;-94
2021/12/03 00:05:52;;;;;;;67.63;12.43;;;;;;;;;;5014222;28;20422;-96
2021/12/03 00:08:19;;;;;;;66.37;11.90;;;;;;;;;;5012362;28;20459;-96
2021/12/03 00:10:54;;;;;;;68.50;12.80;;;;;;;;;;5014422;28;20504;-95
2021/12/03 00:13:21;;;;;;;66.90;12.73;;;;;;;;;;5016068;28;20452;-96
2021/12/03 00:15:52;;;;;;;70.27;13.40;;;;;;;;;;5017787;28;20815;-95
2021/12/03 00:18:20;;;;;;;67.73;12.60;;;;;;;;;;5016729;28;21183;-95
2021/12/03 00:20:47;;;;;;;65.60;12.50;;;;;;;;;;5005788;28;20910;-92
2021/12/03 00:23:17;;;;;;;66.80;12.40;;;;;;;;;;5006048;28;20443;-94
2021/12/03 00:25:48;;;;;;;68.07;12.30;;;;;;;;;;5007307;28;20454;-95
2021/12/03 00:28:15;;;;;;;65.93;12.10;;;;;;;;;;5006146;28;20530;-96
2021/12/03 00:30:49;;;;;;;69.00;12.67;;;;;;;;;;5007603;28;20481;-95
2021/12/03 00:33:15;;;;;;;67.00;12.83;;;;;;;;;;5013683;23;20525;-95
2021/12/03 00:35:55;;;;;;;69.00;12.80;;;;;;;;;;5005346;28;20445;-96
2021/12/03 00:38:21;;;;;;;68.77;12.90;;;;;;;;;;5006300;28;20452;-95
2021/12/03 00:40:55;;;;;;;67.40;12.87;;;;;;;;;;5003707;28;20553;-94
2021/12/03 00:43:23;;;;;;;66.07;11.50;;;;;;;;;;5004939;28;20496;-95
2021/12/03 00:45:53;;;;;;;67.87;12.83;;;;;;;;;;5004300;28;20447;-96
2021/12/03 00:48:20;;;;;;;66.90;12.13;;;;;;;;;;5005534;28;20481;-95
2021/12/03 00:50:47;;;;;;;68.10;12.70;;;;;;;;;;5005885;28;20451;-95
2021/12/03 00:53:13;;;;;;;69.87;13.60;;;;;;;;;;5007720;28;20450;-96
2021/12/03 00:55:43;;;;;;;68.87;12.77;;;;;;;;;;5005554;28;20453;-95
2021/12/03 00:58:16;;;;;;;66.90;12.70;;;;;;;;;;5007014;28;20423;-96
2021/12/03 01:00:42;;;;;;;70.17;12.63;;;;;;;;;;5006007;28;20494;-95
2021/12/03 01:03:09;;;;;;;69.10;13.03;;;;;;;;;;5006764;28;20482;-95
2021/12/03 01:05:35;;;;;;;67.47;12.13;;;;;;;;;;5006310;28;20450;-96
2021/12/03 01:08:02;;;;;;;67.43;12.77;;;;;;;;;;5005530;28;20450;-94
2021/12/03 01:10:29;;;;;;;67.63;12.77;;;;;;;;;;5004179;28;20496;-96
2021/12/03 01:12:56;;;;;;;69.00;12.80;;;;;;;;;;5006767;28;20462;-95
2021/12/03 01:15:37;;;;;;;68.40;12.30;;;;;;;;;;5006966;28;20442;-96
2021/12/03 01:20:49;;;;;;;66.90;12.17;;;;;;;;;;5005385;28;20477;-95
2021/12/03 01:23:16;;;;;;;67.03;12.30;;;;;;;;;;5013328;23;20572;-95
2021/12/03 01:25:43;;;;;;;69.57;13.10;;;;;;;;;;5005876;28;20438;-94
2021/12/03 01:28:11;;;;;;;68.13;13.07;;;;;;;;;;5004770;28;20449;-92
2021/12/03 01:30:44;;;;;;;66.87;12.70;;;;;;;;;;5005482;28;20469;-95
2021/12/03 01:33:19;;;;;;;66.77;12.00;;;;;;;;;;5005962;28;20435;-96
2021/12/03 01:35:47;;;;;;;66.87;11.93;;;;;;;;;;5004081;23;20533;-96
2021/12/03 01:38:16;;;;;;;65.67;12.50;;;;;;;;;;4996241;28;20452;-96
2021/12/03 01:40:44;;;;;;;68.20;12.13;;;;;;;;;;4994447;28;20540;-96
2021/12/03 01:43:14;;;;;;;70.00;11.80;;;;;;;;;;4995347;28;20451;-96
2021/12/03 01:45:47;;;;;;;66.10;11.97;;;;;;;;;;4998290;28;20477;-95
2021/12/03 01:48:18;;;;;;;66.27;11.97;;;;;;;;;;4994154;28;20541;-96
2021/12/03 01:50:45;;;;;;;69.93;11.70;;;;;;;;;;4995611;28;20463;-96
2021/12/03 01:53:16;;;;;;;67.97;12.20;;;;;;;;;;4995301;28;20443;-96
2021/12/03 01:55:46;;;;;;;67.67;12.27;;;;;;;;;;4996955;28;20450;-95
2021/12/03 01:58:22;;;;;;;67.07;12.30;;;;;;;;;;4998255;28;20492;-96
2021/12/03 02:00:51;;;;;;;65.77;12.13;;;;;;;;;;4994692;28;20474;-94
2021/12/03 02:03:22;;;;;;;66.43;11.93;;;;;;;;;;4998437;28;20446;-96
2021/12/03 02:05:51;;;;;;;68.07;12.13;;;;;;;;;;4993012;28;20511;-96
2021/12/03 02:08:27;;;;;;;69.17;12.10;;;;;;;;;;4996193;28;20445;-95
2021/12/03 02:10:53;;;;;;;65.70;11.70;;;;;;;;;;4995160;28;20444;-92
2021/12/03 02:16:05;;;;;;;66.67;11.50;;;;;;;;;;4995203;28;20469;-96
2021/12/03 02:18:32;;;;;;;68.30;12.23;;;;;;;;;;4997843;28;20451;-96
2021/12/03 02:21:04;;;;;;;66.87;11.87;;;;;;;;;;4995029;28;20486;-94
2021/12/03 02:23:41;;;;;;;67.60;11.33;;;;;;;;;;4997130;28;20446;-96
2021/12/03 02:26:08;;;;;;;65.80;12.10;;;;;;;;;;4994361;28;20482;-95
2021/12/03 02:28:36;;;;;;;67.40;11.83;;;;;;;;;;4997512;28;20533;-96
2021/12/03 02:31:05;;;;;;;66.67;11.87;;;;;;;;;;5003889;23;20557;-96
2021/12/03 02:33:34;;;;;;;67.50;12.10;;;;;;;;;;5004246;28;20465;-96
2021/12/03 02:36:04;;;;;;;67.57;12.37;;;;;;;;;;5001765;28;20449;-95
2021/12/03 02:38:32;;;;;;;70.10;12.43;;;;;;;;;;5005475;28;20466;-94
2021/12/03 02:40:58;;;;;;;66.77;12.03;;;;;;;;;;5005092;28;20473;-95
2021/12/03 02:43:32;;;;;;;69.47;12.47;;;;;;;;;;5034883;23;20517;-96
2021/12/03 02:45:59;;;;;;;68.23;12.60;;;;;;;;;;5024451;28;20496;-95
2021/12/03 02:48:27;;;;;;;67.17;12.57;;;;;;;;;;5022228;28;20468;-96
2021/12/03 02:50:54;;;;;;;70.90;12.80;;;;;;;;;;5024447;28;21067;-94
2021/12/03 02:53:23;;;;;;;66.90;12.33;;;;;;;;;;5022254;28;20437;-96
2021/12/03 02:55:51;;;;;;;67.83;12.53;;;;;;;;;;5027773;28;20460;-96
2021/12/03 02:58:18;;;;;;;67.37;12.17;;;;;;;;;;5024007;28;20456;-94
2021/12/03 03:00:47;;;;;;;70.70;12.60;;;;;;;;;;5023695;28;21391;-94
2021/12/03 03:03:15;;;;;;;66.10;11.73;;;;;;;;;;5025092;28;20442;-95
2021/12/03 03:05:45;;;;;;;69.30;12.40;;;;;;;;;;5024073;28;20479;-95
2021/12/03 03:08:12;;;;;;;66.40;12.70;;;;;;;;;;5025680;28;20451;-93
2021/12/03 03:10:45;;;;;;;66.37;12.43;;;;;;;;;;5026999;28;20479;-94
2021/12/03 03:13:23;;;;;;;66.40;11.70;;;;;;;;;;5026183;28;20443;-96
2021/12/03 03:15:50;;;;;;;68.73;12.27;;;;;;;;;;5017094;23;20491;-95
2021/12/03 03:18:17;;;;;;;72.50;12.17;;;;;;;;;;5004571;28;20445;-93
2021/12/03 03:20:44;;;;;;;65.90;11.20;;;;;;;;;;5004231;28;20436;-96
2021/12/03 03:23:13;;;;;;;66.40;11.27;;;;;;;;;;5004571;28;20443;-95
2021/12/03 03:25:43;;;;;;;67.63;11.73;;;;;;;;;;5003364;28;20478;-96
2021/12/03 03:28:12;;;;;;;67.50;12.50;;;;;;;;;;5023228;23;20536;-93
2021/12/03 03:30:40;;;;;;;66.77;11.60;;;;;;;;;;5027449;28;20492;-96
2021/12/03 03:33:07;;;;;;;69.47;11.63;;;;;;;;;;5025970;28;20468;-95
2021/12/03 03:35:35;;;;;;;65.87;11.20;;;;;;;;;;5026785;28;20438;-95
2021/12/03 03:38:01;;;;;;;67.10;11.90;;;;;;;;;;5026580;28;20457;-95
2021/12/03 03:40:29;;;;;;;68.30;11.40;;;;;;;;;;5024981;28;20473;-94
2021/12/03 03:43:01;;;;;;;67.00;11.27;;;;;;;;;;5025862;28;20493;-96
2021/12/03 03:45:30;;;;;;;70.43;12.33;;;;;;;;;;5025588;28;20438;-96
2021/12/03 03:47:57;;;;;;;64.40;10.90;;;;;;;;;;5024706;28;20560;-94
2021/12/03 03:50:35;;;;;;;65.63;11.40;;;;;;;;;;5026042;28;20517;-96
2021/12/03 03:53:10;;;;;;;65.37;11.13;;;;;;;;;;5026620;28;20525;-96
2021/12/03 03:55:39;;;;;;;68.53;11.27;;;;;;;;;;5025636;28;20436;-94
2021/12/03 03:58:06;;;;;;;67.17;11.70;;;;;;;;;;5027208;28;20448;-94
2021/12/03 04:00:41;;;;;;;67.60;10.80;;;;;;;;;;5026753;28;20475;-96
2021/12/03 04:03:08;;;;;;;67.80;11.40;;;;;;;;;;5025300;28;20504;-96
2021/12/03 04:05:35;;;;;;;67.07;11.63;;;;;;;;;;5025615;28;20434;-94
2021/12/03 04:08:02;;;;;;;65.17;11.20;;;;;;;;;;5022183;28;20446;-94
2021/12/03 04:10:30;;;;;;;69.20;11.23;;;;;;;;;;5022709;28;20500;-96
2021/12/03 04:12:59;;;;;;;68.00;12.47;;;;;;;;;;5023011;28;20462;-96
2021/12/03 04:15:25;;;;;;;65.87;11.23;;;;;;;;;;5023836;28;20447;-94
2021/12/03 04:17:53;;;;;;;69.80;10.43;;;;;;;;;;5023293;28;20455;-96
2021/12/03 04:20:20;;;;;;;65.57;10.50;;;;;;;;;;5026881;28;20469;-95
2021/12/03 04:22:47;;;;;;;69.90;11.40;;;;;;;;;;5029082;28;20486;-94
2021/12/03 04:25:15;;;;;;;72.70;11.63;;;;;;;;;;5021965;28;20441;-96
2021/12/03 04:27:42;;;;;;;68.53;11.20;;;;;;;;;;5028928;28;20460;-96
2021/12/03 04:30:10;;;;;;;66.73;11.00;;;;;;;;;;5039225;23;20525;-91
2021/12/03 04:32:38;;;;;;;67.07;10.30;;;;;;;;;;5024374;28;20454;-96
2021/12/03 04:35:10;;;;;;;64.70;11.20;;;;;;;;;;5026724;28;20444;-94
2021/12/03 04:37:37;;;;;;;67.27;11.10;;;;;;;;;;5026832;28;20529;-94
2021/12/03 04:40:04;;;;;;;65.30;11.20;;;;;;;;;;5024196;28;20438;-96
2021/12/03 04:42:31;;;;;;;66.90;10.90;;;;;;;;;;5030526;28;20494;-95
2021/12/03 04:44:57;;;;;;;65.37;11.23;;;;;;;;;;5029701;28;20460;-92
2021/12/03 04:47:24;;;;;;;66.07;12.00;;;;;;;;;;5024695;28;20503;-95
2021/12/03 04:49:51;;;;;;;66.00;11.20;;;;;;;;;;5020007;28;20434;-96
2021/12/03 04:52:19;;;;;;;65.70;11.03;;;;;;;;;;5019835;28;20495;-96
2021/12/03 04:54:45;;;;;;;66.90;10.80;;;;;;;;;;5021666;28;20449;-93
2021/12/03 04:57:16;;;;;;;66.90;11.70;;;;;;;;;;5021115;28;20449;-95
2021/12/03 04:59:43;;;;;;;67.67;10.80;;;;;;;;;;5025553;28;20445;-95
2021/12/03 05:02:09;;;;;;;67.90;11.33;;;;;;;;;;5022696;28;20561;-95
2021/12/03 05:04:38;;;;;;;68.30;11.63;;;;;;;;;;5021949;28;20454;-96
2021/12/03 05:07:16;;;;;;;68.03;11.37;;;;;;;;;;5021268;28;20446;-95
2021/12/03 05:09:44;;;;;;;72.53;11.70;;;;;;;;;;5027082;28;20443;-96
2021/12/03 05:12:11;;;;;;;76.50;11.37;;;;;;;;;;5025546;28;20481;-95
2021/12/03 05:14:38;;;;;;;67.00;10.90;;;;;;;;;;5022095;28;20446;-94
2021/12/03 05:17:07;;;;;;;69.17;11.40;;;;;;;;;;5023884;28;20469;-96
2021/12/03 05:19:33;;;;;;;68.27;11.67;;;;;;;;;;5026905;28;20442;-96
2021/12/03 05:22:00;;;;;;;66.03;11.23;;;;;;;;;;5022894;28;20485;-95
2021/12/03 05:24:28;;;;;;;65.37;10.67;;;;;;;;;;5023503;28;20943;-94
2021/12/03 05:26:56;;;;;;;70.67;11.10;;;;;;;;;;5022099;28;20454;-96
2021/12/03 05:29:23;;;;;;;66.50;11.03;;;;;;;;;;5026210;28;20455;-96
2021/12/03 05:31:58;;;;;;;67.37;10.60;;;;;;;;;;5019128;28;20509;-95
2021/12/03 05:34:25;;;;;;;66.47;11.13;;;;;;;;;;5020451;28;21311;-96
2021/12/03 05:36:51;;;;;;;67.03;11.43;;;;;;;;;;5018801;28;20495;-93
2021/12/03 05:39:18;;;;;;;68.40;11.80;;;;;;;;;;5023909;28;20448;-96
2021/12/03 05:41:52;;;;;;;66.87;10.87;;;;;;;;;;5022132;28;20482;-95
2021/12/03 05:44:20;;;;;;;67.20;10.73;;;;;;;;;;5022686;28;20501;-96
2021/12/03 05:46:46;;;;;;;66.10;11.23;;;;;;;;;;5022235;28;20456;-94
2021/12/03 05:49:13;;;;;;;69.83;11.20;;;;;;;;;;5021714;28;20493;-95
2021/12/03 05:51:41;;;;;;;65.57;11.00;;;;;;;;;;5024383;28;21264;-95
2021/12/03 05:54:09;;;;;;;69.10;11.27;;;;;;;;;;5024115;28;20447;-96
2021/12/03 05:56:36;;;;;;;67.30;11.97;;;;;;;;;;5021678;28;20525;-93
2021/12/03 05:59:03;;;;;;;65.60;11.00;;;;;;;;;;5021941;28;20438;-93
2021/12/03 06:01:31;;;;;;;68.00;10.73;;;;;;;;;;5024631;28;20467;-95
2021/12/03 06:03:59;;;;;;;66.70;11.17;;;;;;;;;;5021919;28;20449;-96
2021/12/03 06:06:25;;;;;;;66.53;10.83;;;;;;;;;;5019773;28;20454;-92
2021/12/03 06:08:52;;;;;;;65.63;11.40;;;;;;;;;;5021510;28;20446;-94
2021/12/03 06:11:19;;;;;;;66.33;10.63;;;;;;;;;;5020560;28;20521;-93
2021/12/03 06:13:45;;;;;;;65.13;11.20;;;;;;;;;;5020176;28;20454;-96
2021/12/03 06:16:13;;;;;;;69.17;10.83;;;;;;;;;;5020759;28;20464;-95
2021/12/03 06:18:41;;;;;;;65.97;10.77;;;;;;;;;;5021897;28;20434;-94
2021/12/03 06:21:15;;;;;;;66.17;10.07;;;;;;;;;;5019546;28;20445;-95
2021/12/03 06:23:42;;;;;;;69.50;11.90;;;;;;;;;;5021123;28;20489;-92
2021/12/03 06:26:09;;;;;;;65.30;10.87;;;;;;;;;;5026117;28;20468;-90
2021/12/03 06:28:37;;;;;;;67.10;11.17;;;;;;;;;;5024070;28;20479;-93
2021/12/03 06:31:05;;;;;;;69.53;10.67;;;;;;;;;;5031059;28;20485;-94
2021/12/03 06:33:31;;;;;;;69.73;11.63;;;;;;;;;;5036634;28;20447;-94
2021/12/03 06:35:59;;;;;;;65.10;11.40;;;;;;;;;;5034000;28;20516;-96
2021/12/03 06:38:26;;;;;;;64.20;10.90;;;;;;;;;;5032293;28;20462;-95
2021/12/03 06:40:53;;;;;;;67.80;11.33;;;;;;;;;;5035664;28;20502;-95
2021/12/03 06:43:20;;;;;;;66.10;11.43;;;;;;;;;;5060086;23;20539;-94
2021/12/03 06:45:47;;;;;;;71.10;11.60;;;;;;;;;;5008263;28;20446;-96
2021/12/03 06:48:14;;;;;;;67.73;10.87;;;;;;;;;;5000821;28;20464;-95
2021/12/03 06:50:42;;;;;;;67.00;11.37;;;;;;;;;;5004794;28;20453;-93
2021/12/03 06:53:16;;;;;;;68.23;11.20;;;;;;;;;;5004955;28;20444;-95
2021/12/03 06:55:46;;;;;;;67.27;10.43;;;;;;;;;;5006549;28;20503;-96
2021/12/03 06:58:16;;;;;;;66.40;10.67;;;;;;;;;;5004807;28;20511;-96
2021/12/03 07:00:43;;;;;;;67.97;10.90;;;;;;;;;;5008882;28;20445;-94
2021/12/03 07:03:11;;;;;;;67.53;10.60;;;;;;;;;;5009341;28;20520;-96
2021/12/03 07:05:38;;;;;;;68.17;10.73;;;;;;;;;;5018074;23;20488;-96
2021/12/03 07:08:06;;;;;;;64.90;10.90;;;;;;;;;;5020718;28;20464;-95
2021/12/03 07:10:35;;;;;;;68.73;11.30;;;;;;;;;;5014595;28;20447;-96
2021/12/03 07:13:03;;;;;;;68.93;10.67;;;;;;;;;;5017150;28;20478;-94
2021/12/03 07:15:30;;;;;;;65.13;10.90;;;;;;;;;;5001608;28;20460;-96
2021/12/03 07:17:56;;;;;;;67.80;9.80;;;;;;;;;;5015622;28;20448;-94
2021/12/03 07:20:25;;;;;;;66.20;11.00;;;;;;;;;;5016905;28;20506;-95
2021/12/03 07:22:54;;;;;;;69.50;11.33;;;;;;;;;;5016037;28;20514;-94
2021/12/03 07:25:26;;;;;;;66.27;11.27;;;;;;;;;;5016027;28;20476;-96
2021/12/03 07:27:54;;;;;;;66.90;10.80;;;;;;;;;;5014873;28;20452;-95
2021/12/03 07:30:23;;;;;;;69.07;11.70;;;;;;;;;;5012866;28;20505;-94
2021/12/03 07:32:51;;;;;;;66.80;10.50;;;;;;;;;;5015980;28;20468;-94
2021/12/03 07:35:17;;;;;;;67.00;10.80;;;;;;;;;;5014544;28;20459;-94
2021/12/03 07:37:44;;;;;;;68.10;11.27;;;;;;;;;;5014817;28;20445;-94
2021/12/03 07:40:15;;;;;;;67.37;11.23;;;;;;;;;;5013146;28;20454;-94
2021/12/03 07:42:43;;;;;;;65.77;10.90;;;;;;;;;;5016006;28;20490;-92
2021/12/03 07:45:19;;;;;;;67.70;11.37;;;;;;;;;;5015673;28;21265;-94
2021/12/03 07:47:45;;;;;;;65.17;10.77;;;;;;;;;;5016603;28;20447;-95
2021/12/03 07:50:13;;;;;;;65.40;11.00;;;;;;;;;;5018666;28;20429;-96
2021/12/03 07:52:40;;;;;;;67.30;11.27;;;;;;;;;;5000867;28;20459;-93
2021/12/03 07:55:11;;;;;;;63.90;10.63;;;;;;;;;;5017237;28;20508;-94
2021/12/03 07:57:38;;;;;;;65.67;10.73;;;;;;;;;;5016863;28;20487;-94
2021/12/03 08:00:06;;;;;;;67.50;11.10;;;;;;;;;;5012387;28;20518;-95
2021/12/03 08:02:34;;;;;;;67.50;11.33;;;;;;;;;;5013258;28;20484;-92
2021/12/03 08:05:01;;;;;;;68.43;11.30;;;;;;;;;;5012069;28;20873;-95
2021/12/03 08:07:28;;;;;;;64.37;10.70;;;;;;;;;;5008046;28;20472;-94
2021/12/03 08:09:57;;;;;;;66.93;12.00;;;;;;;;;;5005877;28;20476;-96
2021/12/03 08:12:31;;;;;;;67.63;10.63;;;;;;;;;;5004891;28;20441;-93
2021/12/03 08:14:58;;;;;;;70.23;11.20;;;;;;;;;;5006134;28;20445;-96
2021/12/03 08:17:32;;;;;;;72.63;11.20;;;;;;;;;;5004907;28;20484;-95
2021/12/03 08:20:00;;;;;;;68.10;11.20;;;;;;;;;;5005993;28;20440;-93
2021/12/03 08:22:27;;;;;;;64.70;11.10;;;;;;;;;;5006869;28;20533;-96
2021/12/03 08:25:00;;;;;;;65.23;10.70;;;;;;;;;;5008876;28;20461;-96
2021/12/03 08:27:27;;;;;;;66.77;11.00;;;;;;;;;;5007874;28;20448;-96
2021/12/03 08:29:56;;;;;;;68.60;11.40;;;;;;;;;;5004832;28;20452;-96
2021/12/03 08:35:11;;;;;;;65.50;10.67;;;;;;;;;;5005766;28;20508;-96
2021/12/03 08:37:43;;;;;;;67.90;10.70;;;;;;;;;;5004161;28;20449;-96
2021/12/03 08:40:11;;;;;;;66.83;11.37;;;;;;;;;;5004250;28;20974;-95
2021/12/03 08:42:38;;;;;;;71.63;11.83;;;;;;;;;;5004658;28;20468;-93
2021/12/03 08:45:25;;;;;;;65.73;11.23;;;;;;;;;;5005676;28;20449;-95
2021/12/03 08:47:58;;;;;;;67.40;11.53;;;;;;;;;;4999243;28;20480;-95
2021/12/03 08:50:36;;;;;;;64.97;10.83;;;;;;;;;;5007418;28;20441;-96
2021/12/03 08:55:49;;;;;;;65.77;11.20;;;;;;;;;;5008319;28;20416;-93
2021/12/03 08:58:17;;;;;;;65.97;11.37;;;;;;;;;;5008939;28;20437;-96
2021/12/03 09:00:51;;;;;;;65.10;11.00;;;;;;;;;;5007246;28;20529;-96
2021/12/03 09:03:28;;;;;;;64.43;11.67;;;;;;;;;;5005002;28;20487;-96
2021/12/03 09:06:04;;;;;;;65.87;11.00;;;;;;;;;;5005107;28;20480;-96
2021/12/03 09:08:39;;;;;;;66.97;11.50;;;;;;;;;;5004214;28;20451;-96
2021/12/03 09:11:06;;;;;;;65.20;11.60;;;;;;;;;;5000101;28;20437;-95
2021/12/03 09:13:39;;;;;;;68.00;11.00;;;;;;;;;;5001024;28;20449;-96
2021/12/03 09:16:12;;;;;;;64.80;11.20;;;;;;;;;;5000065;28;20437;-96
2021/12/03 09:18:45;;;;;;;69.37;11.33;;;;;;;;;;5004778;28;20429;-96
2021/12/03 09:21:17;;;;;;;65.20;11.57;;;;;;;;;;5067181;23;20488;-95
2021/12/03 09:23:55;;;;;;;69.43;11.60;;;;;;;;;;5026309;28;20541;-94
2021/12/03 09:26:35;;;;;;;67.97;11.20;;;;;;;;;;5026742;28;20475;-96
2021/12/03 09:29:05;;;;;;;67.60;10.53;;;;;;;;;;5027824;28;20444;-96
2021/12/03 09:31:36;;;;;;;66.20;11.00;;;;;;;;;;5026554;28;20436;-95
2021/12/03 09:34:09;;;;;;;65.30;10.87;;;;;;;;;;5026269;28;20440;-95
2021/12/03 09:36:40;;;;;;;66.60;10.93;;;;;;;;;;5022147;28;20519;-96
2021/12/03 09:41:52;;;;;;;64.73;11.17;;;;;;;;;;5026589;28;20450;-95
2021/12/03 09:44:30;;;;;;;70.27;10.83;;;;;;;;;;5027184;28;20476;-96
2021/12/03 09:46:59;;;;;;;68.77;11.10;;;;;;;;;;5027321;28;20440;-95
2021/12/03 09:49:37;;;;;;;66.40;9.97;;;;;;;;;;5028514;28;20527;-96
2021/12/03 09:52:13;;;;;;;66.50;10.67;;;;;;;;;;5027209;28;20455;-95
2021/12/03 09:54:42;;;;;;;65.97;10.50;;;;;;;;;;5024907;28;20451;-94
2021/12/03 09:57:11;;;;;;;65.93;10.50;;;;;;;;;;5024131;28;20450;-95
2021/12/03 10:00:01;;;;;;;65.47;11.27;;;;;;;;;;5023158;28;20433;-96
2021/12/03 10:06:27;;;;;;;65.20;11.03;;;;;;;;;;5025382;28;20444;-96
2021/12/03 10:20:11;;;;;;;65.50;12.37;;;;;;;;;;4991899;28;20461;-94
2021/12/03 10:34:06;;;;;;;67.27;11.00;;;;;;;;;;5005901;28;21053;-96
2021/12/03 10:36:49;;;;;;;65.60;11.47;;;;;;;;;;5003013;28;20444;-95
2021/12/03 10:42:11;;;;;;;67.17;11.70;;;;;;;;;;5038265;23;20563;-96
2021/12/03 10:44:58;;;;;;;69.53;11.03;;;;;;;;;;5032346;28;20478;-93
2021/12/03 10:47:43;;;;;;;65.60;11.40;;;;;;;;;;5034272;28;20463;-96
2021/12/03 10:50:24;;;;;;;64.73;11.57;;;;;;;;;;5031975;28;20448;-95
2021/12/03 10:53:06;;;;;;;71.43;11.70;;;;;;;;;;5032751;28;20814;-95
2021/12/03 11:15:45;;;;;;;68.27;11.67;;;;;;;;;;5035349;28;20467;-95
2021/12/03 11:35:20;;;;;;;70.70;11.40;;;;;;;;;;5038281;28;20474;-95
2021/12/03 13:20:35;;;;;;;66.40;10.70;;;;;;;;;;5029426;28;20435;-93
2021/12/03 13:23:41;;;;;;;68.17;11.20;;;;;;;;;;5029808;28;20458;-93
2021/12/03 14:00:11;;;;;;;66.40;10.80;;;;;;;;;;5030590;28;20432;-96
2021/12/03 14:03:24;;;;;;;67.20;11.20;;;;;;;;;;5030442;28;20507;-93
2021/12/03 14:40:11;;;;;;;72.47;11.50;;;;;;;;;;4950214;28;20432;-91
2021/12/03 14:45:43;;;;;;;66.20;10.90;;;;;;;;;;4937625;28;20535;-96
2021/12/03 14:51:23;;;;;;;67.90;11.20;;;;;;;;;;4933059;29;20486;-95
2021/12/03 14:54:16;;;;;;;65.00;10.77;;;;;;;;;;5021690;23;20527;-96
2021/12/03 14:56:46;;;;;;;67.20;11.30;;;;;;;;;;5052038;23;20526;-94
2021/12/03 14:59:20;;;;;;;71.63;10.90;;;;;;;;;;5033867;28;20451;-96
2021/12/03 15:01:57;;;;;;;72.10;12.40;;;;;;;;;;5381610;23;20559;-91
2021/12/03 15:07:18;;;;;;;68.97;11.37;;;;;;;;;;5011342;28;20423;-96
2021/12/03 15:09:47;;;;;;;65.37;10.60;;;;;;;;;;5023387;28;20456;-95
2021/12/03 15:23:17;;;;;;;65.80;11.43;;;;;;;;;;4996448;28;20459;-90
2021/12/03 15:25:53;;;;;;;68.47;12.30;;;;;;;;;;5017023;28;20490;-93
2021/12/03 15:28:50;;;;;;;64.87;11.33;;;;;;;;;;5019621;28;20439;-96
2021/12/03 15:31:26;;;;;;;67.10;11.37;;;;;;;;;;5025776;28;20452;-95
2021/12/03 15:33:57;;;;;;;71.43;10.80;;;;;;;;;;5024137;28;20538;-95
2021/12/03 15:36:34;;;;;;;68.37;11.70;;;;;;;;;;5022285;28;20428;-94
2021/12/03 15:39:20;;;;;;;67.90;11.60;;;;;;;;;;5020473;28;20467;-94
2021/12/03 15:55:52;;;;;;;66.07;11.30;;;;;;;;;;5027915;28;20443;-95
2021/12/03 16:03:53;;;;;;;65.80;11.37;;;;;;;;;;5007761;28;20451;-94
2021/12/03 16:06:28;;;;;;;66.13;11.10;;;;;;;;;;5005014;28;20483;-96
2021/12/03 16:09:33;;;;;;;70.00;10.80;;;;;;;;;;5008234;28;20420;-96
2021/12/03 16:12:09;;;;;;;66.13;11.23;;;;;;;;;;5005091;28;20500;-93
2021/12/03 16:14:51;;;;;;;68.80;11.37;;;;;;;;;;5005959;28;20456;-96
2021/12/03 16:17:38;;;;;;;74.30;11.53;;;;;;;;;;5006574;28;20452;-95
2021/12/03 16:26:22;;;;;;;67.47;11.77;;;;;;;;;;4945430;29;20196;-96
2021/12/03 16:45:21;;;;;;;70.53;11.27;;;;;;;;;;4985595;28;20497;-94
2021/12/03 16:50:54;;;;;;;68.30;11.20;;;;;;;;;;4986465;28;20440;-95
2021/12/03 16:53:23;;;;;;;67.87;11.33;;;;;;;;;;4986628;28;20565;-95
2021/12/03 16:56:07;;;;;;;71.10;13.10;;;;;;;;;;4986363;28;20449;-96
2021/12/03 16:58:42;;;;;;;71.50;14.03;;;;;;;;;;4992698;28;20454;-96
2021/12/03 17:01:14;;;;;;;78.47;14.20;;;;;;;;;;4989849;28;20501;-96
2021/12/03 17:03:48;;;;;;;76.00;16.27;;;;;;;;;;4983310;28;20864;-95
2021/12/03 17:09:12;;;;;;;78.80;17.13;;;;;;;;;;4983935;28;20472;-96
2021/12/03 17:17:39;;;;;;;78.97;20.50;;;;;;;;;;4983420;28;20812;-96
2021/12/03 17:31:39;;;;;;;76.23;19.90;;;;;;;;;;4985048;28;20459;-96
2021/12/03 17:45:33;;;;;;;88.07;25.00;;;;;;;;;;4972451;28;20532;-96
2021/12/03 17:48:17;;;;;;;84.20;21.70;;;;;;;;;;4972446;28;20459;-96
2021/12/03 17:51:03;;;;;;;78.70;20.83;;;;;;;;;;4971585;28;20453;-96
2021/12/03 17:56:15;;;;;;;82.17;21.87;;;;;;;;;;4972191;28;21972;-96
2021/12/03 17:58:43;;;;;;;83.70;22.47;;;;;;;;;;4971156;28;20438;-96
2021/12/03 18:01:16;;;;;;;83.00;22.00;;;;;;;;;;4972268;28;20513;-96
2021/12/03 18:03:52;;;;;;;83.23;22.60;;;;;;;;;;4972316;28;20439;-96
2021/12/03 18:53:00;;;;;;;86.93;26.50;;;;;;;;;;4884372;29;20467;-96
2021/12/03 19:07:42;;;;;;;72.97;13.97;;;;;;;;;;4960023;28;20665;-96
2021/12/03 19:10:38;;;;;;;71.20;12.60;;;;;;;;;;4953770;23;20482;-96
2021/12/03 19:13:24;;;;;;;75.03;13.03;;;;;;;;;;5478143;23;20577;-96
2021/12/03 19:21:40;;;;;;;68.73;12.30;;;;;;;;;;4934408;29;20500;-96
2021/12/03 19:24:08;;;;;;;96.13;23.40;;;;;;;;;;4932773;29;20497;-96
2021/12/03 19:26:42;;;;;;;108.03;32.53;;;;;;;;;;4932640;29;20456;-96
2021/12/03 19:29:11;;;;;;;94.00;28.97;;;;;;;;;;4933255;29;20469;-96
2021/12/03 19:31:39;;;;;;;96.90;28.80;;;;;;;;;;5032045;23;20483;-96
2021/12/03 19:34:19;;;;;;;93.37;28.60;;;;;;;;;;4938101;29;20466;-96
2021/12/03 19:50:02;;;;;;;84.90;20.70;;;;;;;;;;5158185;23;20548;-94
2021/12/03 19:52:36;;;;;;;91.00;26.03;;;;;;;;;;4910928;29;20539;-94
2021/12/03 19:55:03;;;;;;;78.20;16.33;;;;;;;;;;4912782;29;20465;-94
2021/12/03 19:57:29;;;;;;;73.17;16.50;;;;;;;;;;4912534;29;20452;-95
2021/12/03 19:59:57;;;;;;;70.90;13.97;;;;;;;;;;4914441;29;21013;-96
2021/12/03 20:08:25;;;;;;;66.37;10.57;;;;;;;;;;5089331;23;20522;-96
2021/12/03 20:10:54;;;;;;;64.80;10.50;;;;;;;;;;4928814;29;20546;-96
2021/12/03 20:13:22;;;;;;;67.97;10.50;;;;;;;;;;4924244;29;20466;-96
2021/12/03 20:15:55;;;;;;;66.00;10.40;;;;;;;;;;4924715;29;20472;-93
2021/12/03 20:18:29;;;;;;;69.97;13.53;;;;;;;;;;4922692;29;20470;-95
2021/12/03 20:23:46;;;;;;;72.13;13.30;;;;;;;;;;5252740;23;20474;-96
2021/12/03 20:29:20;;;;;;;73.07;13.30;;;;;;;;;;5009390;23;20609;-96
2021/12/03 20:37:16;;;;;;;73.23;14.40;;;;;;;;;;5135587;23;20502;-96
2021/12/03 20:39:48;;;;;;;78.33;17.00;;;;;;;;;;4937824;29;20446;-96
2021/12/03 21:18:33;;;;;;;96.03;28.33;;;;;;;;;;4560721;23;20484;-96
2021/12/03 21:45:50;;;;;;;95.80;29.30;;;;;;;;;;4958851;23;20490;-96
2021/12/03 21:59:03;;;;;;;101.80;30.90;;;;;;;;;;5921015;23;20411;-96
2021/12/03 22:01:33;;;;;;;96.50;27.90;;;;;;;;;;4934873;29;20912;-96
2021/12/03 22:04:00;;;;;;;87.70;27.03;;;;;;;;;;4932408;29;20447;-96
2021/12/03 22:06:29;;;;;;;90.17;26.80;;;;;;;;;;4938607;29;20541;-96
2021/12/03 22:31:16;;;;;;;87.00;23.50;;;;;;;;;;4953069;23;20493;-96
2021/12/03 22:33:45;;;;;;;94.00;25.83;;;;;;;;;;4921164;29;20502;-96
2021/12/03 22:38:54;;;;;;;95.90;26.07;;;;;;;;;;5264797;23;20509;-96
2021/12/03 22:43:56;;;;;;;95.30;27.10;;;;;;;;;;5113527;23;20481;-96
2021/12/03 22:46:46;;;;;;;98.77;27.13;;;;;;;;;;4937733;29;20454;-96
2021/12/03 22:49:21;;;;;;;90.20;26.80;;;;;;;;;;4933847;29;20449;-95
2021/12/03 22:54:28;;;;;;;92.40;29.00;;;;;;;;;;4930458;29;20456;-96
2021/12/03 22:56:56;;;;;;;98.07;28.47;;;;;;;;;;4934299;29;20484;-96
2021/12/03 22:59:22;;;;;;;102.13;30.27;;;;;;;;;;4936585;29;20493;-96
2021/12/03 23:01:50;;;;;;;119.77;37.90;;;;;;;;;;4937099;29;20454;-96
2021/12/03 23:04:17;;;;;;;142.47;42.00;;;;;;;;;;4939224;29;20451;-96
2021/12/03 23:06:44;;;;;;;127.00;38.87;;;;;;;;;;4934935;29;20455;-96
2021/12/03 23:09:10;;;;;;;124.97;39.77;;;;;;;;;;4934512;29;20450;-96
2021/12/03 23:11:38;;;;;;;125.40;42.03;;;;;;;;;;4933808;29;20445;-96
2021/12/03 23:14:05;;;;;;;112.87;39.47;;;;;;;;;;4933089;29;20466;-96
2021/12/03 23:16:32;;;;;;;121.63;41.00;;;;;;;;;;4935397;29;20454;-96
2021/12/03 23:19:00;;;;;;;124.83;41.27;;;;;;;;;;4933324;29;21012;-96
2021/12/03 23:21:26;;;;;;;114.70;39.97;;;;;;;;;;4932174;29;20518;-94
2021/12/03 23:23:53;;;;;;;118.80;44.53;;;;;;;;;;4934641;29;20532;-94
2021/12/03 23:26:20;;;;;;;119.77;40.90;;;;;;;;;;4936486;29;20913;-96
2021/12/03 23:28:48;;;;;;;118.47;42.50;;;;;;;;;;4936022;29;20453;-96
2021/12/03 23:31:15;;;;;;;123.53;40.47;;;;;;;;;;4939494;29;20443;-96
2021/12/03 23:33:42;;;;;;;119.23;40.30;;;;;;;;;;4945635;29;20455;-96
2021/12/03 23:36:13;;;;;;;114.40;39.10;;;;;;;;;;4939083;29;20461;-95
2021/12/03 23:38:39;;;;;;;94.47;28.67;;;;;;;;;;4934551;29;20448;-95
2021/12/03 23:41:06;;;;;;;88.67;24.97;;;;;;;;;;4933277;29;20446;-96
2021/12/03 23:43:33;;;;;;;84.30;21.87;;;;;;;;;;4933722;29;20548;-96